Time;durP1;ratioP1;P1;durP2;ratioP2;P2;SDS_P1;SDS_P2;PMS_P1;PMS_P2;Temp;Humidity;BMP_temperature;BMP_pressure;BME280_temperature;BME280_humidity;BME280_pressure;Samples;Min_cycle;Max_cycle;Signal;HPM_P1;HPM_P2
2022/09/23 00:01:34;;;;;;;8.50;3.20;;;;;7.20;97652.00;;;;110688;1249;41286;-62
2022/09/23 00:04:03;;;;;;;7.40;3.10;;;;;7.26;97654.60;;;;111143;1247;41257;-62
2022/09/23 00:06:32;;;;;;;7.30;3.20;;;;;7.34;97648.80;;;;111148;1247;41546;-61
2022/09/23 00:09:01;;;;;;;8.80;3.20;;;;;7.40;97652.80;;;;111156;1247;42182;-63
2022/09/23 00:11:30;;;;;;;7.60;3.20;;;;;7.48;97655.00;;;;110978;1248;41594;-63
2022/09/23 00:14:00;;;;;;;9.30;3.60;;;;;7.52;97651.40;;;;111042;1248;41304;-63
2022/09/23 00:16:32;;;;;;;8.50;3.90;;;;;7.50;97645.60;;;;111121;1247;41307;-63
2022/09/23 00:19:02;;;;;;;9.60;3.80;;;;;7.50;97642.80;;;;111127;1247;41539;-60
2022/09/23 00:21:31;;;;;;;7.50;3.00;;;;;7.48;97641.20;;;;110836;1249;41506;-61
2022/09/23 00:24:01;;;;;;;6.10;2.60;;;;;7.50;97645.20;;;;111011;1249;41546;-62
2022/09/23 00:26:30;;;;;;;6.30;2.80;;;;;7.52;97643.80;;;;110988;1247;42185;-62
2022/09/23 00:28:58;;;;;;;7.30;3.20;;;;;7.60;97639.20;;;;110702;1249;41616;-62
2022/09/23 00:31:27;;;;;;;7.80;3.20;;;;;7.70;97639.60;;;;111060;1249;41272;-62
2022/09/23 00:33:59;;;;;;;9.50;4.10;;;;;7.80;97644.20;;;;110983;1248;41476;-62
2022/09/23 00:36:31;;;;;;;8.80;3.70;;;;;7.80;97639.40;;;;110990;1249;41147;-62
2022/09/23 00:38:59;;;;;;;10.90;4.80;;;;;7.80;97634.80;;;;111125;1248;42031;-62
2022/09/23 00:41:28;;;;;;;9.70;4.10;;;;;7.80;97629.60;;;;111140;1249;41620;-62
2022/09/23 00:43:59;;;;;;;10.10;4.50;;;;;7.76;97638.20;;;;111039;1247;41213;-62
2022/09/23 00:46:36;;;;;;;8.40;3.50;;;;;7.80;97636.40;;;;110841;1249;41520;-62
2022/09/23 00:49:11;;;;;;;8.10;3.10;;;;;7.80;97632.40;;;;110693;1250;41338;-62
2022/09/23 00:51:46;;;;;;;6.60;2.70;;;;;7.80;97635.40;;;;110646;1249;41142;-62
2022/09/23 00:54:14;;;;;;;6.90;2.80;;;;;7.80;97637.60;;;;110818;1249;41188;-62
2022/09/23 00:56:42;;;;;;;9.30;3.50;;;;;7.80;97634.60;;;;110886;1249;41690;-62
2022/09/23 00:59:11;;;;;;;7.70;3.40;;;;;7.80;97633.40;;;;110882;1248;41182;-62
2022/09/23 01:01:40;;;;;;;6.90;3.10;;;;;7.70;97636.80;;;;111093;1247;41266;-63
2022/09/23 01:04:08;;;;;;;7.60;3.00;;;;;7.70;97644.20;;;;110746;1249;41151;-63
2022/09/23 01:06:37;;;;;;;6.40;2.50;;;;;7.70;97642.60;;;;110986;1247;41539;-63
2022/09/23 01:09:07;;;;;;;5.50;2.50;;;;;7.80;97645.20;;;;110990;1250;41144;-63
2022/09/23 01:11:46;;;;;;;6.50;2.70;;;;;7.80;97642.60;;;;110956;1250;42068;-63
2022/09/23 01:14:45;;;;;;;7.40;2.80;;;;;7.90;97642.80;;;;111011;1247;41844;-63
2022/09/23 01:17:27;;;;;;;6.20;2.70;;;;;7.96;97645.60;;;;110980;1248;41262;-63
2022/09/23 01:20:16;;;;;;;5.40;2.20;;;;;8.00;97645.80;;;;111096;1246;41264;-63
2022/09/23 01:23:09;;;;;;;6.20;2.60;;;;;8.00;97646.20;;;;111068;1248;41271;-63
2022/09/23 01:25:50;;;;;;;6.50;2.50;;;;;8.10;97649.40;;;;110858;1249;41150;-63
2022/09/23 01:28:38;;;;;;;6.50;2.70;;;;;8.10;97654.40;;;;111135;1248;41383;-63
2022/09/23 01:31:17;;;;;;;8.20;3.40;;;;;8.18;97646.40;;;;111135;1247;41144;-63
2022/09/23 01:33:56;;;;;;;7.80;3.60;;;;;8.20;97655.00;;;;111105;1247;41262;-65
2022/09/23 01:36:25;;;;;;;7.00;3.00;;;;;8.20;97647.60;;;;111106;1247;41306;-64
2022/09/23 01:39:06;;;;;;;7.80;3.30;;;;;8.10;97656.40;;;;110933;1248;41165;-62
2022/09/23 01:41:34;;;;;;;;;;;;;8.14;97654.60;;;;111097;1248;41654;-62
2022/09/23 01:44:09;;;;;;;7.20;2.90;;;;;8.10;97660.20;;;;111126;1247;41254;-61
2022/09/23 01:46:50;;;;;;;7.00;3.00;;;;;8.10;97657.00;;;;111084;1248;41164;-61
2022/09/23 01:49:42;;;;;;;6.40;2.90;;;;;8.10;97657.20;;;;111106;1247;41191;-63
2022/09/23 01:52:27;;;;;;;8.50;3.10;;;;;8.10;97656.80;;;;110975;1249;41266;-63
2022/09/23 01:55:12;;;;;;;6.70;2.60;;;;;8.10;97660.40;;;;111115;1247;41263;-63
2022/09/23 01:57:49;;;;;;;8.40;3.50;;;;;8.16;97656.80;;;;111057;1247;41171;-63
2022/09/23 02:00:18;;;;;;;6.30;2.60;;;;;8.10;97658.80;;;;110860;1251;41216;-63
2022/09/23 02:02:56;;;;;;;6.70;3.00;;;;;8.12;97656.20;;;;111070;1247;41249;-63
2022/09/23 02:05:29;;;;;;;7.00;3.00;;;;;8.20;97660.40;;;;111111;1248;41195;-63
2022/09/23 02:08:25;;;;;;;8.70;3.80;;;;;8.20;97657.60;;;;111093;1247;41483;-63
2022/09/23 02:11:05;;;;;;;6.60;3.00;;;;;8.20;97662.80;;;;110996;1248;40753;-63
2022/09/23 02:13:38;;;;;;;6.30;2.80;;;;;8.20;97666.80;;;;111084;1247;41245;-63
2022/09/23 02:16:33;;;;;;;6.20;2.50;;;;;8.20;97665.20;;;;111054;1247;41143;-63
2022/09/23 02:19:06;;;;;;;5.30;2.30;;;;;8.26;97667.00;;;;110981;1249;41144;-63
2022/09/23 02:21:37;;;;;;;5.40;2.40;;;;;8.30;97662.40;;;;111068;1248;41156;-63
2022/09/23 02:24:14;;;;;;;6.10;2.20;;;;;8.30;97658.40;;;;111147;1247;41155;-62
2022/09/23 02:26:58;;;;;;;5.70;2.40;;;;;8.30;97659.00;;;;111227;1247;41133;-63
2022/09/23 02:29:33;;;;;;;6.30;2.30;;;;;8.32;97662.20;;;;110879;1248;41427;-63
2022/09/23 02:32:20;;;;;;;5.10;2.20;;;;;8.30;97665.00;;;;111235;1247;41186;-63
2022/09/23 02:35:06;;;;;;;6.40;2.60;;;;;8.40;97663.20;;;;111111;1246;41762;-63
2022/09/23 02:37:59;;;;;;;6.70;2.40;;;;;8.40;97662.20;;;;111232;1246;41158;-63
2022/09/23 02:40:57;;;;;;;6.60;2.70;;;;;8.40;97661.80;;;;111087;1248;41255;-63
2022/09/23 02:43:45;;;;;;;6.90;3.10;;;;;8.40;97666.20;;;;111067;1247;41542;-63
2022/09/23 02:46:15;;;;;;;7.80;3.30;;;;;8.40;97664.00;;;;111183;1249;41259;-63
2022/09/23 02:48:49;;;;;;;9.00;3.40;;;;;8.40;97665.80;;;;110970;1249;41605;-63
2022/09/23 02:51:17;;;;;;;7.30;3.10;;;;;8.40;97661.00;;;;110913;1249;41783;-63
2022/09/23 02:53:47;;;;;;;6.90;2.90;;;;;8.40;97662.00;;;;111063;1248;41191;-62
2022/09/23 02:56:20;;;;;;;6.60;3.00;;;;;8.40;97659.80;;;;111119;1248;41143;-63
2022/09/23 02:58:52;;;;;;;7.80;3.20;;;;;8.40;97658.60;;;;111099;1247;41154;-63
2022/09/23 03:01:46;;;;;;;6.90;3.10;;;;;8.46;97661.20;;;;111028;1249;41139;-63
2022/09/23 03:04:37;;;;;;;6.00;2.60;;;;;8.50;97662.20;;;;111037;1249;41180;-63
2022/09/23 03:07:31;;;;;;;8.00;3.10;;;;;8.50;97662.40;;;;111032;1247;41703;-63
2022/09/23 03:10:18;;;;;;;11.00;4.00;;;;;8.50;97661.40;;;;110910;1249;42008;-63
2022/09/23 03:13:03;;;;;;;8.10;3.50;;;;;8.40;97664.20;;;;110954;1249;41135;-63
2022/09/23 03:16:06;;;;;;;8.40;3.40;;;;;8.30;97665.60;;;;111110;1247;42849;-63
2022/09/23 03:18:35;;;;;;;7.00;2.80;;;;;8.30;97667.00;;;;111066;1248;41267;-63
2022/09/23 03:21:29;;;;;;;7.70;3.20;;;;;8.30;97666.00;;;;111065;1247;41242;-63
2022/09/23 03:24:00;;;;;;;8.20;3.20;;;;;8.40;97667.00;;;;111089;1246;41133;-63
2022/09/23 03:26:33;;;;;;;8.50;3.50;;;;;8.40;97668.60;;;;111165;1247;41599;-63
2022/09/23 03:29:08;;;;;;;8.00;3.20;;;;;8.40;97666.40;;;;111148;1248;41297;-63
2022/09/23 03:31:41;;;;;;;7.20;2.90;;;;;8.42;97671.20;;;;110898;1250;41187;-63
2022/09/23 03:34:17;;;;;;;9.40;3.60;;;;;8.40;97667.40;;;;110937;1249;41137;-63
2022/09/23 03:36:59;;;;;;;8.60;3.40;;;;;8.40;97665.60;;;;111128;1249;41539;-63
2022/09/23 03:39:43;;;;;;;7.10;3.00;;;;;8.40;97669.80;;;;111153;1247;41208;-63
2022/09/23 03:42:19;;;;;;;8.60;3.60;;;;;8.40;97667.80;;;;110877;1249;41255;-63
2022/09/23 03:44:53;;;;;;;9.20;3.50;;;;;8.42;97664.00;;;;111101;1249;41251;-63
2022/09/23 03:47:24;;;;;;;6.70;2.80;;;;;8.40;97669.20;;;;111036;1249;41156;-63
2022/09/23 03:49:53;;;;;;;5.70;2.70;;;;;8.40;97667.60;;;;111079;1248;41155;-63
2022/09/23 03:52:23;;;;;;;8.10;3.50;;;;;8.42;97662.20;;;;111141;1247;41158;-64
2022/09/23 03:54:51;;;;;;;7.10;2.90;;;;;8.50;97666.40;;;;111185;1247;41232;-63
2022/09/23 03:57:22;;;;;;;6.70;2.80;;;;;8.50;97663.80;;;;111124;1247;41150;-63
2022/09/23 03:59:51;;;;;;;4.70;2.40;;;;;8.50;97663.60;;;;111240;1248;41852;-64
2022/09/23 04:02:19;;;;;;;6.20;2.70;;;;;8.50;97661.00;;;;111061;1247;41127;-63
2022/09/23 04:04:48;;;;;;;9.10;3.60;;;;;8.52;97659.20;;;;111191;1248;41418;-63
2022/09/23 04:07:17;;;;;;;7.70;3.30;;;;;8.50;97659.20;;;;111118;1247;41134;-63
2022/09/23 04:09:45;;;;;;;6.50;2.90;;;;;8.50;97654.80;;;;111171;1249;41635;-63
2022/09/23 04:12:14;;;;;;;5.90;2.40;;;;;8.50;97653.80;;;;111108;1247;41130;-63
2022/09/23 04:14:43;;;;;;;6.60;2.70;;;;;8.50;97649.20;;;;111088;1247;41406;-63
2022/09/23 04:17:11;;;;;;;7.50;2.60;;;;;8.50;97649.60;;;;110912;1249;41226;-63
2022/09/23 04:19:39;;;;;;;5.90;2.40;;;;;8.50;97647.80;;;;111041;1248;41254;-64
2022/09/23 04:22:07;;;;;;;5.90;2.40;;;;;8.60;97655.60;;;;111180;1249;41676;-63
2022/09/23 04:24:35;;;;;;;5.80;2.40;;;;;8.60;97652.20;;;;111075;1247;41146;-62
2022/09/23 04:27:04;;;;;;;6.10;2.30;;;;;8.60;97650.60;;;;111100;1247;42671;-63
2022/09/23 04:29:31;;;;;;;5.60;2.50;;;;;8.60;97646.00;;;;111191;1247;41276;-64
2022/09/23 04:31:59;;;;;;;6.30;2.60;;;;;8.70;97639.80;;;;111133;1248;42126;-63
2022/09/23 04:34:27;;;;;;;5.10;2.20;;;;;8.70;97645.80;;;;111151;1247;41196;-64
2022/09/23 04:36:55;;;;;;;6.10;2.50;;;;;8.70;97643.20;;;;111265;1247;41406;-64
2022/09/23 04:39:22;;;;;;;5.60;2.40;;;;;8.72;97645.20;;;;111097;1247;41734;-64
2022/09/23 04:41:52;;;;;;;7.40;2.90;;;;;8.80;97646.80;;;;111299;1248;41242;-62
2022/09/23 04:44:22;;;;;;;7.50;3.00;;;;;8.80;97646.80;;;;111009;1249;42464;-62
2022/09/23 04:46:50;;;;;;;7.60;3.00;;;;;8.88;97647.60;;;;111311;1247;41152;-63
2022/09/23 04:49:18;;;;;;;8.00;3.00;;;;;8.90;97652.40;;;;111232;1247;41622;-62
2022/09/23 04:51:46;;;;;;;7.90;3.70;;;;;8.90;97658.00;;;;111283;1247;41175;-63
2022/09/23 04:54:14;;;;;;;6.90;3.10;;;;;9.00;97654.20;;;;111296;1248;41133;-62
2022/09/23 04:56:41;;;;;;;10.00;3.70;;;;;9.00;97654.40;;;;111155;1249;41259;-63
2022/09/23 04:59:11;;;;;;;8.40;3.90;;;;;9.00;97653.00;;;;110967;1250;41301;-62
2022/09/23 05:01:38;;;;;;;8.30;3.60;;;;;9.00;97653.00;;;;110968;1249;41255;-63
2022/09/23 05:04:09;;;;;;;8.90;4.00;;;;;8.98;97652.40;;;;110872;1249;41440;-63
2022/09/23 05:06:38;;;;;;;8.40;3.60;;;;;8.96;97655.60;;;;111030;1250;41407;-63
2022/09/23 05:09:07;;;;;;;10.20;4.00;;;;;8.90;97653.20;;;;111025;1248;41960;-64
2022/09/23 05:11:34;;;;;;;8.00;3.50;;;;;8.90;97649.00;;;;111153;1248;41615;-64
2022/09/23 05:14:02;;;;;;;9.40;4.40;;;;;8.90;97648.80;;;;111120;1248;41443;-63
2022/09/23 05:16:30;;;;;;;8.50;3.90;;;;;8.90;97648.80;;;;111028;1249;42005;-63
2022/09/23 05:18:58;;;;;;;8.90;3.90;;;;;8.90;97651.20;;;;110864;1249;41232;-63
2022/09/23 05:21:29;;;;;;;7.50;3.00;;;;;8.90;97652.40;;;;110958;1249;42427;-63
2022/09/23 05:23:59;;;;;;;6.90;3.30;;;;;9.00;97655.00;;;;111037;1249;41192;-63
2022/09/23 05:26:29;;;;;;;8.90;4.00;;;;;9.00;97656.60;;;;110987;1249;41115;-65
2022/09/23 05:28:59;;;;;;;7.60;3.30;;;;;9.08;97652.80;;;;110820;1249;42436;-64
2022/09/23 05:31:28;;;;;;;8.60;3.60;;;;;9.10;97659.00;;;;110889;1247;42015;-62
2022/09/23 05:33:58;;;;;;;10.70;4.40;;;;;9.20;97659.80;;;;110692;1249;41926;-62
2022/09/23 05:36:27;;;;;;;9.00;3.90;;;;;9.28;97659.60;;;;110738;1249;41251;-63
2022/09/23 05:38:55;;;;;;;8.10;2.90;;;;;9.30;97663.80;;;;110719;1248;414283;-62
2022/09/23 05:41:24;;;;;;;7.60;3.20;;;;;9.38;97672.20;;;;110983;1250;41143;-63
2022/09/23 05:43:52;;;;;;;8.50;3.30;;;;;9.40;97670.20;;;;110880;1249;41156;-62
2022/09/23 05:46:22;;;;;;;9.40;4.10;;;;;9.50;97671.40;;;;110793;1249;41168;-62
2022/09/23 05:48:50;;;;;;;8.80;3.90;;;;;9.60;97666.80;;;;110875;1250;41173;-63
2022/09/23 05:51:19;;;;;;;9.00;4.00;;;;;9.60;97670.40;;;;111068;1249;41171;-64
2022/09/23 05:53:47;;;;;;;7.80;3.40;;;;;9.68;97674.00;;;;111046;1247;41159;-63
2022/09/23 05:56:17;;;;;;;9.40;3.80;;;;;9.70;97674.80;;;;110799;1249;41871;-63
2022/09/23 05:58:44;;;;;;;9.30;4.20;;;;;9.70;97672.60;;;;111178;1247;41303;-63
2022/09/23 06:01:16;;;;;;;8.20;3.30;;;;;9.70;97676.80;;;;111092;1247;41169;-64
2022/09/23 06:03:47;;;;;;;9.50;3.80;;;;;9.78;97677.60;;;;111118;1248;41511;-61
2022/09/23 06:06:17;;;;;;;8.10;3.60;;;;;9.80;97683.80;;;;111193;1247;41273;-61
2022/09/23 06:08:47;;;;;;;7.40;3.30;;;;;9.80;97684.80;;;;111069;1247;41143;-62
2022/09/23 06:11:15;;;;;;;7.90;3.30;;;;;9.80;97683.60;;;;111188;1247;41129;-63
2022/09/23 06:13:43;;;;;;;9.10;4.20;;;;;9.90;97685.80;;;;110669;1250;41156;-64
2022/09/23 06:16:14;;;;;;;9.40;4.60;;;;;9.90;97687.60;;;;110838;1251;41324;-61
2022/09/23 06:18:43;;;;;;;9.70;4.10;;;;;9.90;97683.80;;;;111076;1249;41139;-63
2022/09/23 06:21:13;;;;;;;9.20;4.00;;;;;9.96;97684.40;;;;111268;1248;41253;-61
2022/09/23 06:23:42;;;;;;;9.80;4.50;;;;;10.00;97690.20;;;;111215;1247;41244;-62
2022/09/23 06:26:15;;;;;;;9.20;4.20;;;;;10.00;97690.80;;;;111115;1247;42369;-61
2022/09/23 06:28:43;;;;;;;11.30;4.70;;;;;10.00;97691.60;;;;111044;1248;41165;-62
2022/09/23 06:31:14;;;;;;;9.30;4.40;;;;;10.00;97690.00;;;;111197;1247;41260;-63
2022/09/23 06:33:43;;;;;;;9.30;4.20;;;;;10.00;97693.40;;;;111112;1247;41244;-62
2022/09/23 06:36:13;;;;;;;9.00;4.20;;;;;10.00;97691.80;;;;111148;1247;41998;-63
2022/09/23 06:38:51;;;;;;;8.20;3.40;;;;;10.00;97696.00;;;;111199;1247;41224;-63
2022/09/23 06:41:19;;;;;;;9.30;4.10;;;;;10.00;97692.20;;;;111247;1247;41148;-63
2022/09/23 06:43:47;;;;;;;10.50;4.30;;;;;10.00;97688.00;;;;111081;1248;41254;-64
2022/09/23 06:46:16;;;;;;;9.20;4.30;;;;;10.06;97687.80;;;;111163;1247;41141;-64
2022/09/23 06:48:44;;;;;;;9.10;4.00;;;;;10.00;97695.80;;;;111242;1247;41191;-64
2022/09/23 06:51:18;;;;;;;10.10;4.00;;;;;10.00;97698.00;;;;111181;1247;42036;-64
2022/09/23 06:53:49;;;;;;;7.90;3.50;;;;;10.00;97699.00;;;;111175;1247;41264;-64
2022/09/23 06:56:18;;;;;;;;;;;;;10.10;97698.80;;;;111564;1247;41920;-63
2022/09/23 06:58:46;;;;;;;9.30;4.30;;;;;10.10;97698.20;;;;111258;1247;41251;-63
2022/09/23 07:01:16;;;;;;;8.40;3.90;;;;;10.20;97698.80;;;;111233;1249;41255;-64
2022/09/23 07:03:44;;;;;;;8.30;3.40;;;;;10.20;97703.40;;;;110931;1249;41194;-63
2022/09/23 07:06:12;;;;;;;8.60;3.70;;;;;10.20;97703.00;;;;111172;1247;41340;-64
2022/09/23 07:08:48;;;;;;;11.30;4.60;;;;;10.30;97708.60;;;;111146;1247;41146;-63
2022/09/23 07:11:22;;;;;;;;;;;;;10.30;97708.00;;;;111156;1249;42415;-63
2022/09/23 07:13:55;;;;;;;9.10;4.00;;;;;10.30;97708.20;;;;111320;1247;41115;-62
2022/09/23 07:16:23;;;;;;;8.10;3.40;;;;;10.30;97707.60;;;;111196;1247;41374;-63
2022/09/23 07:18:52;;;;;;;8.00;3.70;;;;;10.30;97704.20;;;;111123;1247;41146;-63
2022/09/23 07:21:19;;;;;;;7.40;3.10;;;;;10.30;97703.00;;;;111226;1247;41255;-63
2022/09/23 07:23:49;;;;;;;6.40;3.00;;;;;10.40;97701.60;;;;111158;1249;41134;-63
2022/09/23 07:26:17;;;;;;;7.10;3.10;;;;;10.50;97702.40;;;;111273;1247;41836;-64
2022/09/23 07:28:45;;;;;;;8.70;3.30;;;;;10.60;97704.40;;;;111280;1247;41140;-65
2022/09/23 07:31:15;;;;;;;8.30;3.30;;;;;10.70;97708.40;;;;111498;1246;41129;-63
2022/09/23 07:33:48;;;;;;;7.40;3.40;;;;;10.80;97707.20;;;;111340;1247;41620;-63
2022/09/23 07:36:17;;;;;;;7.40;3.30;;;;;10.80;97711.00;;;;111223;1247;41597;-64
2022/09/23 07:38:46;;;;;;;7.70;3.20;;;;;10.80;97707.60;;;;111125;1248;41690;-63
2022/09/23 07:41:16;;;;;;;10.40;4.10;;;;;10.80;97706.60;;;;111169;1247;41354;-64
2022/09/23 07:43:46;;;;;;;8.30;3.10;;;;;10.90;97713.00;;;;111242;1247;41482;-63
2022/09/23 07:46:16;;;;;;;7.20;3.10;;;;;10.90;97718.80;;;;111101;1249;41248;-63
2022/09/23 07:48:45;;;;;;;10.50;4.50;;;;;10.96;97716.60;;;;110756;1250;41830;-63
2022/09/23 07:51:20;;;;;;;8.50;3.60;;;;;11.10;97717.60;;;;110843;1249;42774;-62
2022/09/23 07:53:51;;;;;;;7.20;3.10;;;;;11.20;97720.20;;;;110905;1250;41133;-62
2022/09/23 07:56:21;;;;;;;13.60;6.10;;;;;11.20;97718.40;;;;111082;1247;41247;-63
2022/09/23 07:58:58;;;;;;;11.20;4.70;;;;;11.30;97717.00;;;;111321;1247;41260;-61
2022/09/23 08:01:34;;;;;;;11.40;5.40;;;;;11.30;97717.40;;;;111102;1248;41618;-63
2022/09/23 08:04:10;;;;;;;9.10;3.80;;;;;11.40;97716.40;;;;111513;1248;41255;-61
2022/09/23 08:06:47;;;;;;;7.70;3.20;;;;;11.50;97713.20;;;;111575;1247;41151;-62
2022/09/23 08:09:37;;;;;;;8.30;3.60;;;;;11.70;97714.20;;;;111550;1247;40820;-62
2022/09/23 08:12:05;;;;;;;9.40;4.40;;;;;11.90;97709.60;;;;111497;1247;41252;-63
2022/09/23 08:14:32;;;;;;;8.80;3.70;;;;;12.00;97708.00;;;;111468;1248;41252;-63
2022/09/23 08:17:00;;;;;;;8.90;3.60;;;;;11.90;97708.20;;;;111427;1247;41648;-63
2022/09/23 08:19:28;;;;;;;7.60;3.20;;;;;11.80;97708.80;;;;111627;1247;40775;-62
2022/09/23 08:21:56;;;;;;;6.90;3.00;;;;;11.80;97702.40;;;;111540;1247;41261;-62
2022/09/23 08:24:25;;;;;;;6.80;2.70;;;;;11.90;97699.20;;;;111650;1247;40897;-62
2022/09/23 08:26:56;;;;;;;8.90;3.30;;;;;12.12;97695.80;;;;111137;1249;42151;-63
2022/09/23 08:29:31;;;;;;;22.00;8.30;;;;;12.40;97701.20;;;;111117;1249;42042;-64
2022/09/23 08:32:04;;;;;;;11.70;4.60;;;;;12.50;97703.00;;;;111047;1249;41156;-63
2022/09/23 08:34:38;;;;;;;7.30;3.20;;;;;12.60;97702.20;;;;110982;1249;41191;-63
2022/09/23 08:37:23;;;;;;;7.20;3.00;;;;;12.70;97702.40;;;;111515;1246;41143;-63
2022/09/23 08:40:00;;;;;;;11.70;4.70;;;;;12.70;97703.60;;;;111013;1249;41910;-63
2022/09/23 08:42:57;;;;;;;6.90;2.80;;;;;12.86;97698.60;;;;110874;1249;42386;-64
2022/09/23 08:45:45;;;;;;;6.40;2.60;;;;;12.90;97696.40;;;;111218;1249;41622;-63
2022/09/23 08:48:43;;;;;;;8.20;3.10;;;;;13.00;97693.80;;;;111413;1249;42396;-63
2022/09/23 08:51:28;;;;;;;7.90;2.80;;;;;13.10;97696.00;;;;111512;1248;41627;-62
2022/09/23 08:54:01;;;;;;;6.20;2.50;;;;;13.30;97690.20;;;;111075;1249;41632;-63
2022/09/23 08:56:30;;;;;;;6.30;2.60;;;;;13.40;97686.20;;;;111330;1247;41247;-62
2022/09/23 08:59:20;;;;;;;5.00;2.30;;;;;13.60;97683.00;;;;111335;1247;41263;-62
2022/09/23 09:02:17;;;;;;;7.60;3.00;;;;;13.70;97683.40;;;;111393;1248;41957;-63
2022/09/23 09:04:48;;;;;;;6.30;2.40;;;;;13.80;97679.20;;;;111262;1247;41273;-62
2022/09/23 09:07:26;;;;;;;6.50;2.50;;;;;13.80;97678.60;;;;111523;1247;41156;-62
2022/09/23 09:10:18;;;;;;;5.40;2.40;;;;;13.80;97678.80;;;;111517;1247;41136;-62
2022/09/23 09:12:50;;;;;;;10.00;2.90;;;;;13.70;97679.00;;;;111006;1250;41646;-62
2022/09/23 09:15:22;;;;;;;6.50;2.70;;;;;13.80;97677.40;;;;111376;1247;41139;-62
2022/09/23 09:17:52;;;;;;;5.70;2.40;;;;;13.90;97674.80;;;;111210;1249;41154;-65
2022/09/23 09:20:49;;;;;;;6.00;2.20;;;;;14.12;97676.20;;;;111003;1249;41591;-62
2022/09/23 09:23:21;;;;;;;6.80;2.90;;;;;14.40;97678.60;;;;111266;1248;41027;-63
2022/09/23 09:26:01;;;;;;;8.00;2.80;;;;;14.18;97673.00;;;;111344;1249;41137;-63
2022/09/23 09:28:46;;;;;;;6.20;2.50;;;;;14.20;97674.60;;;;111225;1247;41257;-62
2022/09/23 09:31:48;;;;;;;7.30;2.50;;;;;14.10;97672.40;;;;110904;1249;41664;-62
2022/09/23 09:34:42;;;;;;;5.10;2.40;;;;;14.10;97673.00;;;;111336;1248;41251;-62
2022/09/23 09:37:11;;;;;;;5.70;2.30;;;;;14.20;97671.60;;;;111261;1247;41155;-62
2022/09/23 09:39:39;;;;;;;4.90;2.20;;;;;14.30;97670.60;;;;111379;1248;41143;-64
2022/09/23 09:42:22;;;;;;;4.40;1.90;;;;;14.56;97662.40;;;;111423;1247;41240;-64
2022/09/23 09:45:09;;;;;;;6.40;2.30;;;;;15.18;97653.20;;;;111427;1249;41721;-63
2022/09/23 09:47:47;;;;;;;4.90;2.20;;;;;16.72;97655.40;;;;111192;1249;41148;-63
2022/09/23 09:50:37;;;;;;;5.20;2.20;;;;;17.44;97652.20;;;;110991;1249;41260;-64
2022/09/23 09:53:24;;;;;;;4.50;2.00;;;;;17.60;97652.20;;;;111418;1247;41555;-64
2022/09/23 09:56:07;;;;;;;4.40;1.90;;;;;18.18;97651.60;;;;111250;1247;41430;-63
2022/09/23 09:58:50;;;;;;;6.10;2.20;;;;;18.40;97651.40;;;;111327;1248;41261;-63
2022/09/23 10:01:24;;;;;;;5.60;2.10;;;;;18.02;97646.20;;;;111374;1247;41257;-62
2022/09/23 10:04:23;;;;;;;4.50;1.80;;;;;18.02;97641.60;;;;111230;1250;41798;-62
2022/09/23 10:07:15;;;;;;;4.10;1.90;;;;;19.28;97635.80;;;;111280;1249;41195;-63
2022/09/23 10:09:51;;;;;;;4.40;1.90;;;;;20.46;97626.40;;;;111165;1247;41660;-63
2022/09/23 10:12:48;;;;;;;4.10;1.90;;;;;21.20;97633.40;;;;111488;1248;41136;-64
2022/09/23 10:15:32;;;;;;;6.30;1.80;;;;;21.16;97623.00;;;;111174;1249;41155;-63
2022/09/23 10:18:00;;;;;;;3.90;1.80;;;;;20.62;97627.00;;;;111362;1247;41133;-63
2022/09/23 10:20:35;;;;;;;2.60;1.40;;;;;20.80;97630.00;;;;111272;1248;40760;-64
2022/09/23 10:23:21;;;;;;;3.50;1.60;;;;;20.74;97628.80;;;;111264;1247;42000;-63
2022/09/23 10:26:02;;;;;;;2.40;1.50;;;;;20.34;97630.00;;;;111407;1249;41138;-65
2022/09/23 10:28:39;;;;;;;3.90;1.70;;;;;19.52;97632.20;;;;111074;1248;41789;-64
2022/09/23 10:31:14;;;;;;;5.20;1.90;;;;;18.80;97640.40;;;;111211;1249;42223;-63
2022/09/23 10:33:50;;;;;;;3.40;1.70;;;;;18.40;97642.40;;;;111453;1247;41624;-63
2022/09/23 10:36:21;;;;;;;2.90;1.60;;;;;18.20;97637.80;;;;111729;1247;41147;-63
2022/09/23 10:49:36;;;;;;;2.20;1.40;;;;;23.30;97596.20;;;;111243;1247;41258;-62
2022/09/23 10:52:15;;;;;;;2.90;1.60;;;;;23.18;97601.80;;;;110893;1251;41203;-62
2022/09/23 10:55:12;;;;;;;3.10;1.60;;;;;22.44;97601.20;;;;111314;1247;41133;-63
2022/09/23 10:57:44;;;;;;;3.70;1.60;;;;;21.60;97606.80;;;;111255;1249;40747;-63
2022/09/23 11:00:46;;;;;;;3.10;1.50;;;;;21.06;97608.40;;;;111389;1248;41513;-64
2022/09/23 11:03:18;;;;;;;2.90;1.50;;;;;20.40;97602.40;;;;111243;1249;41354;-63
2022/09/23 11:06:19;;;;;;;3.20;1.40;;;;;19.98;97608.00;;;;111227;1248;41148;-63
2022/09/23 11:09:16;;;;;;;3.50;1.50;;;;;19.60;97605.80;;;;111184;1248;41723;-63
2022/09/23 11:12:10;;;;;;;3.50;1.70;;;;;19.04;97604.60;;;;111387;1249;41609;-64
2022/09/23 11:15:09;;;;;;;2.90;1.70;;;;;18.82;97609.20;;;;111379;1248;42622;-64
2022/09/23 11:18:02;;;;;;;2.80;1.60;;;;;18.88;97603.40;;;;111120;1249;41571;-64
2022/09/23 11:20:41;;;;;;;3.10;1.50;;;;;19.20;97604.60;;;;111144;1249;41153;-64
2022/09/23 11:23:36;;;;;;;2.20;1.50;;;;;19.40;97604.20;;;;111273;1250;41449;-63
2022/09/23 11:26:26;;;;;;;2.80;1.50;;;;;19.48;97601.40;;;;110995;1250;41200;-62
2022/09/23 11:29:41;;;;;;;3.30;1.50;;;;;19.48;97603.80;;;;111173;1249;41125;-63
2022/09/23 11:32:22;;;;;;;10.10;2.40;;;;;19.20;97603.80;;;;111021;1248;41190;-62
2022/09/23 11:35:16;;;;;;;2.70;1.50;;;;;19.38;97599.80;;;;111213;1250;41155;-63
2022/09/23 11:37:51;;;;;;;5.70;1.80;;;;;20.00;97588.20;;;;111517;1247;41770;-63
2022/09/23 11:40:27;;;;;;;2.00;1.30;;;;;21.20;97588.80;;;;111106;1250;40792;-64
2022/09/23 11:43:14;;;;;;;3.20;1.60;;;;;22.18;97572.80;;;;111112;1250;41152;-63
2022/09/23 11:45:57;;;;;;;3.60;1.60;;;;;23.26;97561.00;;;;110930;1250;41626;-64
2022/09/23 11:48:34;;;;;;;2.10;1.30;;;;;24.16;97553.00;;;;111339;1250;41186;-64
2022/09/23 11:51:15;;;;;;;3.70;1.70;;;;;24.42;97550.40;;;;111074;1250;40876;-64
2022/09/23 11:54:08;;;;;;;3.00;1.60;;;;;25.18;97549.20;;;;111328;1248;40835;-64
2022/09/23 11:56:47;;;;;;;3.90;1.50;;;;;24.12;97551.00;;;;111304;1248;42534;-66
2022/09/23 11:59:30;;;;;;;2.80;1.50;;;;;22.40;97561.40;;;;111406;1247;41524;-64
2022/09/23 12:02:16;;;;;;;6.60;2.20;;;;;21.54;97569.40;;;;111470;1248;42104;-65
2022/09/23 12:05:23;;;;;;;4.00;1.80;;;;;20.90;97577.60;;;;111305;1250;42628;-63
2022/09/23 12:08:03;;;;;;;3.20;1.50;;;;;20.32;97573.20;;;;111454;1247;41170;-64
2022/09/23 12:11:00;;;;;;;3.30;1.50;;;;;19.82;97570.20;;;;111085;1249;41606;-63
2022/09/23 12:13:37;;;;;;;4.50;2.10;;;;;19.88;97569.40;;;;110901;1251;41251;-64
2022/09/23 12:16:14;;;;;;;4.20;1.60;;;;;20.30;97563.60;;;;111211;1249;41378;-63
2022/09/23 12:18:57;;;;;;;2.40;1.40;;;;;20.90;97562.20;;;;111335;1247;41257;-63
2022/09/23 12:21:38;;;;;;;2.80;1.40;;;;;21.00;97561.80;;;;111263;1250;41153;-64
2022/09/23 12:24:26;;;;;;;3.50;1.50;;;;;20.84;97554.40;;;;111303;1248;41261;-63
2022/09/23 12:26:57;;;;;;;2.50;1.40;;;;;20.40;97561.40;;;;111269;1247;40958;-63
2022/09/23 12:29:26;;;;;;;2.10;1.40;;;;;20.18;97559.40;;;;111209;1249;41258;-63
2022/09/23 12:32:00;;;;;;;2.70;1.40;;;;;19.96;97557.40;;;;111395;1247;42300;-64
2022/09/23 12:34:32;;;;;;;;;;;;;19.70;97551.20;;;;110929;1248;42164;-64
2022/09/23 12:37:03;;;;;;;1.70;1.30;;;;;19.80;97553.60;;;;111278;1247;41538;-64
2022/09/23 12:39:37;;;;;;;2.40;1.30;;;;;20.00;97552.20;;;;111480;1247;41146;-63
2022/09/23 12:42:15;;;;;;;2.50;1.40;;;;;19.90;97551.40;;;;110952;1250;41674;-64
2022/09/23 12:44:55;;;;;;;2.40;1.40;;;;;19.90;97549.60;;;;110927;1251;41478;-62
2022/09/23 12:47:37;;;;;;;2.80;1.50;;;;;19.50;97555.80;;;;111652;1249;41188;-63
2022/09/23 12:50:44;;;;;;;3.50;1.60;;;;;19.20;97554.60;;;;111618;1248;41882;-64
2022/09/23 12:53:53;;;;;;;2.80;1.50;;;;;18.72;97553.60;;;;111086;1250;42120;-63
2022/09/23 12:56:37;;;;;;;1.50;1.20;;;;;18.40;97545.60;;;;110672;1254;41210;-63
2022/09/23 12:59:42;;;;;;;2.00;1.30;;;;;18.20;97541.80;;;;111413;1248;41228;-63
2022/09/23 13:02:28;;;;;;;3.60;1.60;;;;;18.10;97546.00;;;;111341;1248;42038;-63
2022/09/23 13:08:25;;;;;;;3.70;1.70;;;;;17.80;97549.20;;;;110966;1251;41294;-63
2022/09/23 13:10:59;;;;;;;3.40;1.40;;;;;17.70;97551.80;;;;111560;1247;41267;-63
2022/09/23 13:13:48;;;;;;;3.70;1.60;;;;;17.54;97553.00;;;;111120;1250;41159;-63